sensor_id;sensor_type;location;lat;lon;timestamp;pressure;altitude;pressure_sealevel;temperature;humidity
69223;BME280;56514;51.816;-0.026;2023-01-27T00:00:06;102554.06;;;6.17;75.46
69223;BME280;56514;51.816;-0.026;2023-01-27T00:02:51;102556.81;;;6.11;75.53
69223;BME280;56514;51.816;-0.026;2023-01-27T00:05:56;102558.50;;;6.13;75.76
69223;BME280;56514;51.816;-0.026;2023-01-27T00:09:07;102539.28;;;6.13;75.40
69223;BME280;56514;51.816;-0.026;2023-01-27T00:12:19;102546.22;;;6.15;75.52
69223;BME280;56514;51.816;-0.026;2023-01-27T00:15:43;102546.19;;;6.17;75.38
69223;BME280;56514;51.816;-0.026;2023-01-27T00:18:52;102542.84;;;6.10;75.51
69223;BME280;56514;51.816;-0.026;2023-01-27T00:22:01;102545.38;;;6.13;75.33
69223;BME280;56514;51.816;-0.026;2023-01-27T00:25:30;102541.84;;;6.16;75.45
69223;BME280;56514;51.816;-0.026;2023-01-27T00:28:40;102545.25;;;6.19;75.47
69223;BME280;56514;51.816;-0.026;2023-01-27T00:31:50;102544.44;;;6.16;74.82
69223;BME280;56514;51.816;-0.026;2023-01-27T00:34:54;102539.31;;;6.11;74.91
69223;BME280;56514;51.816;-0.026;2023-01-27T00:37:39;102532.31;;;6.12;75.02
69223;BME280;56514;51.816;-0.026;2023-01-27T00:40:24;102533.16;;;6.14;74.55
69223;BME280;56514;51.816;-0.026;2023-01-27T00:43:08;102532.19;;;6.18;74.37
69223;BME280;56514;51.816;-0.026;2023-01-27T00:45:53;102523.69;;;6.07;74.59
69223;BME280;56514;51.816;-0.026;2023-01-27T00:48:40;102528.13;;;6.05;74.68
69223;BME280;56514;51.816;-0.026;2023-01-27T00:51:25;102529.88;;;6.04;74.41
69223;BME280;56514;51.816;-0.026;2023-01-27T00:54:10;102529.88;;;6.04;74.52
69223;BME280;56514;51.816;-0.026;2023-01-27T00:56:55;102536.03;;;6.02;74.33
69223;BME280;56514;51.816;-0.026;2023-01-27T00:59:40;102524.81;;;5.95;74.22
69223;BME280;56514;51.816;-0.026;2023-01-27T01:02:25;102517.03;;;5.91;74.78
69223;BME280;56514;51.816;-0.026;2023-01-27T01:05:10;102513.59;;;5.89;74.60
69223;BME280;56514;51.816;-0.026;2023-01-27T01:07:55;102510.19;;;5.84;74.80
69223;BME280;56514;51.816;-0.026;2023-01-27T01:10:40;102515.44;;;5.81;75.20
69223;BME280;56514;51.816;-0.026;2023-01-27T01:13:26;102507.56;;;5.84;75.41
69223;BME280;56514;51.816;-0.026;2023-01-27T01:16:18;102510.22;;;5.82;75.26
69223;BME280;56514;51.816;-0.026;2023-01-27T01:19:03;102511.06;;;5.84;75.02
69223;BME280;56514;51.816;-0.026;2023-01-27T01:21:48;102511.09;;;5.81;75.06
69223;BME280;56514;51.816;-0.026;2023-01-27T01:24:33;102515.50;;;5.78;75.35
69223;BME280;56514;51.816;-0.026;2023-01-27T01:27:18;102513.03;;;5.72;75.61
69223;BME280;56514;51.816;-0.026;2023-01-27T01:30:04;102508.72;;;5.69;75.72
69223;BME280;56514;51.816;-0.026;2023-01-27T01:32:49;102513.03;;;5.72;75.82
69223;BME280;56514;51.816;-0.026;2023-01-27T01:35:36;102509.56;;;5.71;75.66
69223;BME280;56514;51.816;-0.026;2023-01-27T01:38:21;102515.69;;;5.69;76.13
69223;BME280;56514;51.816;-0.026;2023-01-27T01:41:09;102510.44;;;5.70;75.79
69223;BME280;56514;51.816;-0.026;2023-01-27T01:43:55;102517.41;;;5.71;76.26
69223;BME280;56514;51.816;-0.026;2023-01-27T01:46:40;102517.31;;;5.76;76.16
69223;BME280;56514;51.816;-0.026;2023-01-27T01:49:32;102506.78;;;5.79;75.82
69223;BME280;56514;51.816;-0.026;2023-01-27T01:52:19;102506.78;;;5.79;75.56
69223;BME280;56514;51.816;-0.026;2023-01-27T01:55:05;102502.34;;;5.82;75.31
69223;BME280;56514;51.816;-0.026;2023-01-27T01:57:52;102497.09;;;5.84;75.98
69223;BME280;56514;51.816;-0.026;2023-01-27T02:00:38;102498.09;;;5.77;75.96
69223;BME280;56514;51.816;-0.026;2023-01-27T02:03:25;102498.06;;;5.78;75.98
69223;BME280;56514;51.816;-0.026;2023-01-27T02:06:13;102498.16;;;5.74;76.02
69223;BME280;56514;51.816;-0.026;2023-01-27T02:09:01;102493.84;;;5.71;76.56
69223;BME280;56514;51.816;-0.026;2023-01-27T02:11:46;102492.09;;;5.70;76.46
69223;BME280;56514;51.816;-0.026;2023-01-27T02:14:32;102484.28;;;5.69;76.46
69223;BME280;56514;51.816;-0.026;2023-01-27T02:17:17;102478.25;;;5.65;76.85
69223;BME280;56514;51.816;-0.026;2023-01-27T02:26:22;102477.44;;;5.62;77.27
69223;BME280;56514;51.816;-0.026;2023-01-27T02:29:13;102467.09;;;5.56;77.18
69223;BME280;56514;51.816;-0.026;2023-01-27T02:31:58;102460.19;;;5.52;77.31
69223;BME280;56514;51.816;-0.026;2023-01-27T02:34:43;102457.66;;;5.47;77.51
69223;BME280;56514;51.816;-0.026;2023-01-27T02:37:30;102455.91;;;5.47;77.63
69223;BME280;56514;51.816;-0.026;2023-01-27T02:40:17;102456.75;;;5.50;78.12
69223;BME280;56514;51.816;-0.026;2023-01-27T02:43:03;102459.41;;;5.48;77.82
69223;BME280;56514;51.816;-0.026;2023-01-27T02:45:48;102447.22;;;5.45;78.14
69223;BME280;56514;51.816;-0.026;2023-01-27T02:48:33;102455.88;;;5.49;78.29
69223;BME280;56514;51.816;-0.026;2023-01-27T02:51:18;102455.00;;;5.48;78.55
69223;BME280;56514;51.816;-0.026;2023-01-27T02:54:03;102454.09;;;5.51;77.86
69223;BME280;56514;51.816;-0.026;2023-01-27T02:56:48;102444.38;;;5.58;77.74
69223;BME280;56514;51.816;-0.026;2023-01-27T02:59:33;102449.59;;;5.59;77.42
69223;BME280;56514;51.816;-0.026;2023-01-27T03:02:18;102455.69;;;5.58;77.56
69223;BME280;56514;51.816;-0.026;2023-01-27T03:05:06;102459.22;;;5.57;77.85
69223;BME280;56514;51.816;-0.026;2023-01-27T03:07:51;102460.91;;;5.60;77.54
69223;BME280;56514;51.816;-0.026;2023-01-27T03:10:36;102446.81;;;5.67;77.89
69223;BME280;56514;51.816;-0.026;2023-01-27T03:13:25;102454.78;;;5.61;77.80
69223;BME280;56514;51.816;-0.026;2023-01-27T03:16:11;102450.41;;;5.61;78.17
69223;BME280;56514;51.816;-0.026;2023-01-27T03:19:15;102452.94;;;5.64;77.61
69223;BME280;56514;51.816;-0.026;2023-01-27T03:22:00;102453.75;;;5.68;78.35
69223;BME280;56514;51.816;-0.026;2023-01-27T03:24:46;102463.22;;;5.75;77.41
69223;BME280;56514;51.816;-0.026;2023-01-27T03:27:31;102462.47;;;5.70;77.82
69223;BME280;56514;51.816;-0.026;2023-01-27T03:30:17;102465.84;;;5.73;78.15
69223;BME280;56514;51.816;-0.026;2023-01-27T03:33:02;102478.03;;;5.76;78.24
69223;BME280;56514;51.816;-0.026;2023-01-27T03:35:49;102473.56;;;5.82;78.12
69223;BME280;56514;51.816;-0.026;2023-01-27T03:38:52;102472.63;;;5.86;78.16
69223;BME280;56514;51.816;-0.026;2023-01-27T03:41:56;102474.56;;;5.75;78.27
69223;BME280;56514;51.816;-0.026;2023-01-27T03:45:00;102478.03;;;5.76;78.15
69223;BME280;56514;51.816;-0.026;2023-01-27T03:48:04;102479.09;;;5.66;78.53
69223;BME280;56514;51.816;-0.026;2023-01-27T03:50:49;102467.91;;;5.59;79.04
69223;BME280;56514;51.816;-0.026;2023-01-27T03:53:37;102476.59;;;5.60;78.99
69223;BME280;56514;51.816;-0.026;2023-01-27T03:56:22;102476.44;;;5.67;79.14
69223;BME280;56514;51.816;-0.026;2023-01-27T03:59:07;102467.59;;;5.74;78.89
69223;BME280;56514;51.816;-0.026;2023-01-27T04:01:52;102476.25;;;5.76;78.42
69223;BME280;56514;51.816;-0.026;2023-01-27T04:04:37;102481.50;;;5.76;79.25
69223;BME280;56514;51.816;-0.026;2023-01-27T04:07:40;102477.94;;;5.80;78.88
69223;BME280;56514;51.816;-0.026;2023-01-27T04:10:25;102474.44;;;5.83;78.90
69223;BME280;56514;51.816;-0.026;2023-01-27T04:13:10;102486.56;;;5.87;78.60
69223;BME280;56514;51.816;-0.026;2023-01-27T04:15:56;102476.00;;;5.90;78.87
69223;BME280;56514;51.816;-0.026;2023-01-27T04:18:40;102474.13;;;5.96;78.11
69223;BME280;56514;51.816;-0.026;2023-01-27T04:21:25;102474.94;;;6.00;78.57
69223;BME280;56514;51.816;-0.026;2023-01-27T04:24:11;102481.00;;;6.03;78.24
69223;BME280;56514;51.816;-0.026;2023-01-27T04:27:12;102478.41;;;6.02;78.35
69223;BME280;56514;51.816;-0.026;2023-01-27T04:29:59;102482.03;;;5.95;78.07
69223;BME280;56514;51.816;-0.026;2023-01-27T04:32:44;102480.31;;;5.94;78.22
69223;BME280;56514;51.816;-0.026;2023-01-27T04:35:29;102483.88;;;5.90;78.67
69223;BME280;56514;51.816;-0.026;2023-01-27T04:38:14;102479.59;;;5.86;78.89
69223;BME280;56514;51.816;-0.026;2023-01-27T04:40:59;102477.94;;;5.80;79.12
69223;BME280;56514;51.816;-0.026;2023-01-27T04:43:44;102475.34;;;5.82;78.93
69223;BME280;56514;51.816;-0.026;2023-01-27T04:46:30;102466.66;;;5.77;78.88
69223;BME280;56514;51.816;-0.026;2023-01-27T04:49:16;102485.06;;;5.74;78.84
69223;BME280;56514;51.816;-0.026;2023-01-27T04:52:01;102472.94;;;5.70;78.93
69223;BME280;56514;51.816;-0.026;2023-01-27T04:54:46;102472.03;;;5.71;79.46
69223;BME280;56514;51.816;-0.026;2023-01-27T04:57:31;102472.16;;;5.65;78.94
69223;BME280;56514;51.816;-0.026;2023-01-27T05:00:17;102471.34;;;5.61;79.17
69223;BME280;56514;51.816;-0.026;2023-01-27T05:03:02;102470.41;;;5.65;79.00
69223;BME280;56514;51.816;-0.026;2023-01-27T05:05:48;102459.91;;;5.67;79.14
69223;BME280;56514;51.816;-0.026;2023-01-27T05:08:33;102467.72;;;5.68;79.02
69223;BME280;56514;51.816;-0.026;2023-01-27T05:11:18;102459.84;;;5.70;78.92
69223;BME280;56514;51.816;-0.026;2023-01-27T05:14:03;102466.94;;;5.63;79.23
69223;BME280;56514;51.816;-0.026;2023-01-27T05:16:48;102475.56;;;5.70;79.10
69223;BME280;56514;51.816;-0.026;2023-01-27T05:19:33;102469.34;;;5.74;78.91
69223;BME280;56514;51.816;-0.026;2023-01-27T05:22:18;102470.19;;;5.76;78.76
69223;BME280;56514;51.816;-0.026;2023-01-27T05:25:03;102469.28;;;5.77;78.89
69223;BME280;56514;51.816;-0.026;2023-01-27T05:27:48;102478.13;;;5.71;78.70
69223;BME280;56514;51.816;-0.026;2023-01-27T05:30:34;102479.97;;;5.66;79.25
69223;BME280;56514;51.816;-0.026;2023-01-27T05:33:18;102486.91;;;5.69;78.59
69223;BME280;56514;51.816;-0.026;2023-01-27T05:36:05;102488.66;;;5.70;78.69
69223;BME280;56514;51.816;-0.026;2023-01-27T05:38:51;102478.16;;;5.70;78.84
69223;BME280;56514;51.816;-0.026;2023-01-27T05:41:36;102484.28;;;5.69;78.48
69223;BME280;56514;51.816;-0.026;2023-01-27T05:44:21;102475.50;;;5.73;78.70
69223;BME280;56514;51.816;-0.026;2023-01-27T05:47:06;102479.81;;;5.74;78.73
69223;BME280;56514;51.816;-0.026;2023-01-27T05:49:51;102481.56;;;5.73;78.66
69223;BME280;56514;51.816;-0.026;2023-01-27T05:52:36;102481.59;;;5.72;78.68
69223;BME280;56514;51.816;-0.026;2023-01-27T05:55:24;102482.56;;;5.68;78.68
69223;BME280;56514;51.816;-0.026;2023-01-27T05:58:09;102479.03;;;5.69;78.38
69223;BME280;56514;51.816;-0.026;2023-01-27T06:00:54;102483.34;;;5.73;78.40
69223;BME280;56514;51.816;-0.026;2023-01-27T06:03:40;102483.31;;;5.74;78.45
69223;BME280;56514;51.816;-0.026;2023-01-27T06:06:27;102479.78;;;5.75;78.40
69223;BME280;56514;51.816;-0.026;2023-01-27T06:09:12;102482.38;;;5.77;78.33
69223;BME280;56514;51.816;-0.026;2023-01-27T06:11:57;102483.28;;;5.76;78.08
69223;BME280;56514;51.816;-0.026;2023-01-27T06:14:42;102478.09;;;5.73;78.26
69223;BME280;56514;51.816;-0.026;2023-01-27T06:17:27;102482.50;;;5.71;78.31
69223;BME280;56514;51.816;-0.026;2023-01-27T06:20:12;102479.81;;;5.74;78.21
69223;BME280;56514;51.816;-0.026;2023-01-27T06:22:57;102469.41;;;5.71;78.08
69223;BME280;56514;51.816;-0.026;2023-01-27T06:25:45;102476.31;;;5.73;78.00
69223;BME280;56514;51.816;-0.026;2023-01-27T06:28:30;102474.56;;;5.75;78.14
69223;BME280;56514;51.816;-0.026;2023-01-27T06:31:18;102472.06;;;5.69;77.90
69223;BME280;56514;51.816;-0.026;2023-01-27T06:34:03;102479.06;;;5.67;77.75
69223;BME280;56514;51.816;-0.026;2023-01-27T06:36:48;102474.69;;;5.69;77.88
69223;BME280;56514;51.816;-0.026;2023-01-27T06:39:36;102473.75;;;5.72;77.59
69223;BME280;56514;51.816;-0.026;2023-01-27T06:42:21;102478.00;;;5.77;76.97
69223;BME280;56514;51.816;-0.026;2023-01-27T06:45:06;102476.28;;;5.75;77.71
69223;BME280;56514;51.816;-0.026;2023-01-27T06:47:56;102471.97;;;5.74;76.89
69223;BME280;56514;51.816;-0.026;2023-01-27T06:50:42;102474.63;;;5.72;77.12
69223;BME280;56514;51.816;-0.026;2023-01-27T06:53:30;102475.44;;;5.76;77.22
69223;BME280;56514;51.816;-0.026;2023-01-27T06:56:16;102474.53;;;5.77;76.74
69223;BME280;56514;51.816;-0.026;2023-01-27T06:59:00;102480.66;;;5.76;76.85
69223;BME280;56514;51.816;-0.026;2023-01-27T07:01:46;102483.22;;;5.79;76.63
69223;BME280;56514;51.816;-0.026;2023-01-27T07:04:30;102477.06;;;5.80;76.82
69223;BME280;56514;51.816;-0.026;2023-01-27T07:07:15;102480.56;;;5.82;76.39
69223;BME280;56514;51.816;-0.026;2023-01-27T07:10:00;102477.06;;;5.80;76.40
69223;BME280;56514;51.816;-0.026;2023-01-27T07:12:45;102475.31;;;5.83;76.77
69223;BME280;56514;51.816;-0.026;2023-01-27T07:15:30;102481.41;;;5.81;76.74
69223;BME280;56514;51.816;-0.026;2023-01-27T07:18:16;102483.25;;;5.77;76.51
69223;BME280;56514;51.816;-0.026;2023-01-27T07:21:03;102490.16;;;5.80;76.79
69223;BME280;56514;51.816;-0.026;2023-01-27T07:23:48;102491.88;;;5.81;76.55
69223;BME280;56514;51.816;-0.026;2023-01-27T07:26:33;102492.75;;;5.83;76.20
69223;BME280;56514;51.816;-0.026;2023-01-27T07:29:19;102484.03;;;5.81;76.57
69223;BME280;56514;51.816;-0.026;2023-01-27T07:32:03;102494.47;;;5.84;76.08
69223;BME280;56514;51.816;-0.026;2023-01-27T07:34:48;102496.16;;;5.88;76.34
69223;BME280;56514;51.816;-0.026;2023-01-27T07:37:33;102501.44;;;5.86;76.06
69223;BME280;56514;51.816;-0.026;2023-01-27T07:40:19;102504.88;;;5.87;76.35
69223;BME280;56514;51.816;-0.026;2023-01-27T07:43:04;102503.09;;;5.89;75.81
69223;BME280;56514;51.816;-0.026;2023-01-27T07:45:52;102510.03;;;5.91;76.15
69223;BME280;56514;51.816;-0.026;2023-01-27T07:48:37;102503.06;;;5.90;75.66
69223;BME280;56514;51.816;-0.026;2023-01-27T07:51:22;102506.63;;;5.88;75.75
69223;BME280;56514;51.816;-0.026;2023-01-27T07:54:07;102505.66;;;5.92;75.77
69223;BME280;56514;51.816;-0.026;2023-01-27T07:56:52;102507.31;;;5.97;75.89
69223;BME280;56514;51.816;-0.026;2023-01-27T07:59:37;102504.59;;;6.02;75.80
69223;BME280;56514;51.816;-0.026;2023-01-27T08:02:23;102508.13;;;5.99;75.41
69223;BME280;56514;51.816;-0.026;2023-01-27T08:05:08;102501.09;;;6.01;75.65
69223;BME280;56514;51.816;-0.026;2023-01-27T08:08:00;102493.22;;;6.03;75.27
69223;BME280;56514;51.816;-0.026;2023-01-27T08:10:50;102503.69;;;6.03;74.90
69223;BME280;56514;51.816;-0.026;2023-01-27T08:13:35;102502.78;;;6.04;75.31
69223;BME280;56514;51.816;-0.026;2023-01-27T08:16:20;102511.50;;;6.06;74.94
69223;BME280;56514;51.816;-0.026;2023-01-27T08:19:05;102508.81;;;6.09;74.94
69223;BME280;56514;51.816;-0.026;2023-01-27T08:21:53;102513.06;;;6.13;74.55
69223;BME280;56514;51.816;-0.026;2023-01-27T08:24:38;102519.03;;;6.21;74.71
69223;BME280;56514;51.816;-0.026;2023-01-27T08:27:23;102526.72;;;6.28;74.59
69223;BME280;56514;51.816;-0.026;2023-01-27T08:30:08;102518.78;;;6.31;74.65
69223;BME280;56514;51.816;-0.026;2023-01-27T08:32:53;102519.53;;;6.38;74.83
69223;BME280;56514;51.816;-0.026;2023-01-27T08:35:38;102521.97;;;6.45;74.78
69223;BME280;56514;51.816;-0.026;2023-01-27T08:38:32;102522.72;;;6.52;74.78
69223;BME280;56514;51.816;-0.026;2023-01-27T08:41:24;102525.22;;;6.56;74.61
69223;BME280;56514;51.816;-0.026;2023-01-27T08:44:09;102523.25;;;6.64;74.42
69223;BME280;56514;51.816;-0.026;2023-01-27T08:46:54;102527.63;;;6.65;73.82
69223;BME280;56514;51.816;-0.026;2023-01-27T08:49:38;102527.66;;;6.64;73.37
69223;BME280;56514;51.816;-0.026;2023-01-27T08:52:25;102531.03;;;6.69;73.40
69223;BME280;56514;51.816;-0.026;2023-01-27T08:55:11;102530.97;;;6.70;72.49
69223;BME280;56514;51.816;-0.026;2023-01-27T08:57:56;102539.91;;;6.63;72.70
69223;BME280;56514;51.816;-0.026;2023-01-27T09:00:43;102538.19;;;6.62;72.62
69223;BME280;56514;51.816;-0.026;2023-01-27T09:03:33;102547.69;;;6.66;72.39
69223;BME280;56514;51.816;-0.026;2023-01-27T09:06:19;102552.00;;;6.69;72.70
69223;BME280;56514;51.816;-0.026;2023-01-27T09:09:05;102553.56;;;6.77;72.72
69223;BME280;56514;51.816;-0.026;2023-01-27T09:11:53;102562.88;;;6.90;72.32
69223;BME280;56514;51.816;-0.026;2023-01-27T09:14:37;102560.97;;;6.97;72.36
69223;BME280;56514;51.816;-0.026;2023-01-27T09:17:24;102561.63;;;7.06;72.52
69223;BME280;56514;51.816;-0.026;2023-01-27T09:20:10;102561.41;;;7.14;71.47
69223;BME280;56514;51.816;-0.026;2023-01-27T09:22:55;102566.81;;;7.08;71.66
69223;BME280;56514;51.816;-0.026;2023-01-27T09:25:40;102567.50;;;7.16;71.60
69223;BME280;56514;51.816;-0.026;2023-01-27T09:28:25;102564.72;;;7.22;71.40
69223;BME280;56514;51.816;-0.026;2023-01-27T09:31:10;102570.69;;;7.27;71.57
69223;BME280;56514;51.816;-0.026;2023-01-27T09:33:55;102572.34;;;7.33;70.94
69223;BME280;56514;51.816;-0.026;2023-01-27T09:36:43;102569.72;;;7.33;70.57
69223;BME280;56514;51.816;-0.026;2023-01-27T09:39:34;102582.75;;;7.36;70.64
69223;BME280;56514;51.816;-0.026;2023-01-27T09:48:38;102572.50;;;7.60;69.86
69223;BME280;56514;51.816;-0.026;2023-01-27T09:58:14;102566.50;;;7.87;68.38
69223;BME280;56514;51.816;-0.026;2023-01-27T10:07:42;102564.59;;;8.21;68.31
69223;BME280;56514;51.816;-0.026;2023-01-27T10:10:42;102568.78;;;8.30;67.66
69223;BME280;56514;51.816;-0.026;2023-01-27T10:13:50;102569.84;;;8.23;66.71
69223;BME280;56514;51.816;-0.026;2023-01-27T10:28:43;102582.16;;;8.51;66.87
69223;BME280;56514;51.816;-0.026;2023-01-27T10:31:36;102589.88;;;8.57;66.31
69223;BME280;56514;51.816;-0.026;2023-01-27T10:34:25;102584.28;;;8.68;66.17
69223;BME280;56514;51.816;-0.026;2023-01-27T10:40:34;102576.94;;;9.05;65.95
69223;BME280;56514;51.816;-0.026;2023-01-27T10:43:59;102568.19;;;9.05;64.40
69223;BME280;56514;51.816;-0.026;2023-01-27T10:46:50;102575.09;;;9.09;64.31
69223;BME280;56514;51.816;-0.026;2023-01-27T10:49:46;102571.09;;;9.23;64.38
69223;BME280;56514;51.816;-0.026;2023-01-27T10:52:43;102568.38;;;9.26;63.09
69223;BME280;56514;51.816;-0.026;2023-01-27T10:55:48;102558.16;;;9.42;63.11
69223;BME280;56514;51.816;-0.026;2023-01-27T11:01:58;102558.72;;;9.76;61.48
69223;BME280;56514;51.816;-0.026;2023-01-27T11:04:47;102549.88;;;9.77;62.59
69223;BME280;56514;51.816;-0.026;2023-01-27T11:07:45;102552.72;;;9.95;63.07
69223;BME280;56514;51.816;-0.026;2023-01-27T11:10:43;102549.44;;;10.13;61.02
69223;BME280;56514;51.816;-0.026;2023-01-27T11:13:50;102545.16;;;10.11;60.97
69223;BME280;56514;51.816;-0.026;2023-01-27T11:16:37;102551.19;;;10.14;61.78
69223;BME280;56514;51.816;-0.026;2023-01-27T11:19:37;102547.50;;;10.18;60.50
69223;BME280;56514;51.816;-0.026;2023-01-27T11:22:43;102543.31;;;10.13;60.14
69223;BME280;56514;51.816;-0.026;2023-01-27T11:25:52;102539.13;;;10.06;59.77
69223;BME280;56514;51.816;-0.026;2023-01-27T11:40:30;102532.25;;;10.71;59.39
69223;BME280;56514;51.816;-0.026;2023-01-27T11:43:24;102525.38;;;10.89;58.47
69223;BME280;56514;51.816;-0.026;2023-01-27T11:46:16;102517.06;;;10.98;58.25
69223;BME280;56514;51.816;-0.026;2023-01-27T11:49:02;102527.44;;;11.02;58.22
69223;BME280;56514;51.816;-0.026;2023-01-27T11:51:47;102517.69;;;11.04;58.22
69223;BME280;56514;51.816;-0.026;2023-01-27T11:54:39;102511.72;;;10.99;57.41
69223;BME280;56514;51.816;-0.026;2023-01-27T11:57:33;102506.13;;;10.85;57.34
69223;BME280;56514;51.816;-0.026;2023-01-27T12:00:56;102510.91;;;10.97;57.87
69223;BME280;56514;51.816;-0.026;2023-01-27T12:04:04;102520.13;;;11.09;57.44
69223;BME280;56514;51.816;-0.026;2023-01-27T12:09:40;102503.03;;;11.17;57.55
69223;BME280;56514;51.816;-0.026;2023-01-27T12:12:26;102501.41;;;11.35;56.89
69223;BME280;56514;51.816;-0.026;2023-01-27T12:15:14;102496.94;;;11.55;56.53
69223;BME280;56514;51.816;-0.026;2023-01-27T12:18:09;102498.44;;;11.62;56.34
69223;BME280;56514;51.816;-0.026;2023-01-27T12:20:59;102501.84;;;11.64;55.61
69223;BME280;56514;51.816;-0.026;2023-01-27T12:23:53;102502.84;;;11.62;55.93
69223;BME280;56514;51.816;-0.026;2023-01-27T12:26:43;102494.50;;;11.51;54.77
69223;BME280;56514;51.816;-0.026;2023-01-27T12:29:40;102492.94;;;11.47;54.84
69223;BME280;56514;51.816;-0.026;2023-01-27T12:32:40;102494.25;;;11.57;55.50
69223;BME280;56514;51.816;-0.026;2023-01-27T12:35:29;102496.81;;;11.78;56.04
69223;BME280;56514;51.816;-0.026;2023-01-27T12:38:23;102495.75;;;11.82;53.85
69223;BME280;56514;51.816;-0.026;2023-01-27T12:41:09;102497.09;;;11.72;54.71
69223;BME280;56514;51.816;-0.026;2023-01-27T12:43:57;102502.84;;;11.62;54.19
69223;BME280;56514;51.816;-0.026;2023-01-27T12:49:43;102489.88;;;11.16;53.07
69223;BME280;56514;51.816;-0.026;2023-01-27T12:52:28;102485.72;;;11.10;54.35
69223;BME280;56514;51.816;-0.026;2023-01-27T12:55:32;102493.09;;;11.02;54.17
69223;BME280;56514;51.816;-0.026;2023-01-27T12:58:28;102492.78;;;11.10;54.08
69223;BME280;56514;51.816;-0.026;2023-01-27T13:01:34;102486.88;;;11.03;52.84
69223;BME280;56514;51.816;-0.026;2023-01-27T13:04:23;102495.44;;;10.88;53.74
69223;BME280;56514;51.816;-0.026;2023-01-27T13:07:14;102483.56;;;10.78;53.64
69223;BME280;56514;51.816;-0.026;2023-01-27T13:10:05;102482.94;;;10.72;54.05
69223;BME280;56514;51.816;-0.026;2023-01-27T13:13:02;102477.72;;;10.70;54.13
69223;BME280;56514;51.816;-0.026;2023-01-27T13:15:56;102474.53;;;10.62;53.42
69223;BME280;56514;51.816;-0.026;2023-01-27T13:18:55;102484.13;;;10.64;53.86
69223;BME280;56514;51.816;-0.026;2023-01-27T13:21:41;102479.28;;;10.76;53.94
69223;BME280;56514;51.816;-0.026;2023-01-27T13:24:32;102473.44;;;11.49;53.50
69223;BME280;56514;51.816;-0.026;2023-01-27T13:27:21;102464.50;;;12.65;50.19
69223;BME280;56514;51.816;-0.026;2023-01-27T13:30:27;102475.00;;;13.02;47.52
69223;BME280;56514;51.816;-0.026;2023-01-27T13:42:14;102480.06;;;11.59;51.05
69223;BME280;56514;51.816;-0.026;2023-01-27T13:45:09;102475.19;;;12.45;51.28
69223;BME280;56514;51.816;-0.026;2023-01-27T13:48:02;102462.81;;;14.45;44.36
69223;BME280;56514;51.816;-0.026;2023-01-27T13:51:03;102467.13;;;15.66;44.91
69223;BME280;56514;51.816;-0.026;2023-01-27T13:53:57;102470.53;;;15.54;42.81
69223;BME280;56514;51.816;-0.026;2023-01-27T14:00:08;102476.13;;;13.97;45.33
69223;BME280;56514;51.816;-0.026;2023-01-27T14:03:15;102480.84;;;13.08;47.58
69223;BME280;56514;51.816;-0.026;2023-01-27T14:18:31;102481.31;;;15.07;45.46
69223;BME280;56514;51.816;-0.026;2023-01-27T14:21:33;102474.50;;;15.47;42.24
69223;BME280;56514;51.816;-0.026;2023-01-27T14:27:39;102488.09;;;13.39;45.40
69223;BME280;56514;51.816;-0.026;2023-01-27T14:30:30;102487.16;;;12.70;47.35
69223;BME280;56514;51.816;-0.026;2023-01-27T14:33:40;102487.78;;;12.39;48.76
69223;BME280;56514;51.816;-0.026;2023-01-27T14:42:51;102485.00;;;11.87;50.51
69223;BME280;56514;51.816;-0.026;2023-01-27T14:45:49;102485.75;;;11.89;50.81
69223;BME280;56514;51.816;-0.026;2023-01-27T14:51:43;102489.16;;;11.52;51.15
69223;BME280;56514;51.816;-0.026;2023-01-27T14:57:52;102492.25;;;11.62;51.23
69223;BME280;56514;51.816;-0.026;2023-01-27T15:01:02;102485.13;;;13.77;48.63
69223;BME280;56514;51.816;-0.026;2023-01-27T15:07:11;102483.88;;;16.37;41.87
69223;BME280;56514;51.816;-0.026;2023-01-27T15:10:16;102484.38;;;17.48;39.14
69223;BME280;56514;51.816;-0.026;2023-01-27T15:13:41;102490.28;;;18.52;37.29
69223;BME280;56514;51.816;-0.026;2023-01-27T15:22:56;102506.94;;;17.05;38.46
69223;BME280;56514;51.816;-0.026;2023-01-27T15:25:54;102515.03;;;17.03;38.69
69223;BME280;56514;51.816;-0.026;2023-01-27T15:28:41;102522.53;;;16.02;39.92
69223;BME280;56514;51.816;-0.026;2023-01-27T15:31:29;102504.47;;;16.21;39.94
69223;BME280;56514;51.816;-0.026;2023-01-27T15:34:20;102504.81;;;17.49;38.11
69223;BME280;56514;51.816;-0.026;2023-01-27T15:43:04;102519.09;;;17.48;36.03
69223;BME280;56514;51.816;-0.026;2023-01-27T15:46:16;102506.16;;;15.65;39.06
69223;BME280;56514;51.816;-0.026;2023-01-27T15:49:03;102510.28;;;14.36;41.48
69223;BME280;56514;51.816;-0.026;2023-01-27T15:51:55;102510.72;;;14.44;42.51
69223;BME280;56514;51.816;-0.026;2023-01-27T15:54:42;102501.41;;;14.97;41.52
69223;BME280;56514;51.816;-0.026;2023-01-27T15:57:31;102502.66;;;14.76;40.73
69223;BME280;56514;51.816;-0.026;2023-01-27T16:00:29;102507.22;;;14.28;42.35
69223;BME280;56514;51.816;-0.026;2023-01-27T16:06:12;102505.47;;;12.75;45.24
69223;BME280;56514;51.816;-0.026;2023-01-27T16:09:06;102505.66;;;11.97;46.98
69223;BME280;56514;51.816;-0.026;2023-01-27T16:12:50;102499.31;;;11.61;48.23
69223;BME280;56514;51.816;-0.026;2023-01-27T16:21:02;102500.91;;;11.05;49.30
69223;BME280;56514;51.816;-0.026;2023-01-27T16:23:55;102501.09;;;10.57;50.25
69223;BME280;56514;51.816;-0.026;2023-01-27T16:26:47;102504.56;;;10.15;51.45
69223;BME280;56514;51.816;-0.026;2023-01-27T16:29:47;102511.59;;;9.67;52.56
69223;BME280;56514;51.816;-0.026;2023-01-27T16:32:37;102513.13;;;9.25;53.51
69223;BME280;56514;51.816;-0.026;2023-01-27T16:35:23;102515.25;;;8.87;54.51
69223;BME280;56514;51.816;-0.026;2023-01-27T16:38:18;102517.16;;;8.55;55.20
69223;BME280;56514;51.816;-0.026;2023-01-27T16:41:26;102520.78;;;8.22;55.66
69223;BME280;56514;51.816;-0.026;2023-01-27T16:44:19;102533.91;;;7.93;55.91
69223;BME280;56514;51.816;-0.026;2023-01-27T16:47:18;102541.66;;;7.67;56.43
69223;BME280;56514;51.816;-0.026;2023-01-27T16:50:05;102537.94;;;7.43;57.16
69223;BME280;56514;51.816;-0.026;2023-01-27T16:52:50;102532.28;;;7.25;57.81